sensor_id;sensor_type;location;lat;lon;timestamp;temperature;humidity
50556;DHT22;36508;52.512;13.450;2023-05-10T00:00:35;14.60;82.30
50556;DHT22;36508;52.512;13.450;2023-05-10T00:03:01;14.50;83.70
50556;DHT22;36508;52.512;13.450;2023-05-10T00:05:26;14.50;82.90
50556;DHT22;36508;52.512;13.450;2023-05-10T00:07:52;14.50;83.30
50556;DHT22;36508;52.512;13.450;2023-05-10T00:10:17;14.50;83.90
50556;DHT22;36508;52.512;13.450;2023-05-10T00:12:43;14.30;84.20
50556;DHT22;36508;52.512;13.450;2023-05-10T00:15:18;14.30;84.50
50556;DHT22;36508;52.512;13.450;2023-05-10T00:18:14;14.30;85.30
50556;DHT22;36508;52.512;13.450;2023-05-10T00:20:46;14.30;85.40
50556;DHT22;36508;52.512;13.450;2023-05-10T00:23:25;14.30;85.80
50556;DHT22;36508;52.512;13.450;2023-05-10T00:25:54;14.30;85.80
50556;DHT22;36508;52.512;13.450;2023-05-10T00:28:22;14.30;86.50
50556;DHT22;36508;52.512;13.450;2023-05-10T00:30:54;14.30;86.30
50556;DHT22;36508;52.512;13.450;2023-05-10T00:33:31;14.30;86.50
50556;DHT22;36508;52.512;13.450;2023-05-10T00:36:07;14.10;86.60
50556;DHT22;36508;52.512;13.450;2023-05-10T00:38:45;14.00;87.40
50556;DHT22;36508;52.512;13.450;2023-05-10T00:41:38;14.00;87.90
50556;DHT22;36508;52.512;13.450;2023-05-10T00:44:06;13.90;88.50
50556;DHT22;36508;52.512;13.450;2023-05-10T00:46:35;14.00;88.50
50556;DHT22;36508;52.512;13.450;2023-05-10T00:49:01;14.00;89.00
50556;DHT22;36508;52.512;13.450;2023-05-10T00:51:27;14.00;89.00
50556;DHT22;36508;52.512;13.450;2023-05-10T00:53:59;13.90;89.40
50556;DHT22;36508;52.512;13.450;2023-05-10T00:56:31;13.90;89.40
50556;DHT22;36508;52.512;13.450;2023-05-10T01:02:19;13.70;90.40
50556;DHT22;36508;52.512;13.450;2023-05-10T01:04:45;13.70;90.60
50556;DHT22;36508;52.512;13.450;2023-05-10T01:07:11;13.70;90.90
50556;DHT22;36508;52.512;13.450;2023-05-10T01:09:37;13.70;91.10
50556;DHT22;36508;52.512;13.450;2023-05-10T01:12:03;13.70;91.20
50556;DHT22;36508;52.512;13.450;2023-05-10T01:14:30;13.60;91.60
50556;DHT22;36508;52.512;13.450;2023-05-10T01:16:55;13.50;91.80
50556;DHT22;36508;52.512;13.450;2023-05-10T01:19:29;13.60;91.90
50556;DHT22;36508;52.512;13.450;2023-05-10T01:22:22;13.50;92.30
50556;DHT22;36508;52.512;13.450;2023-05-10T01:25:28;13.60;92.40
50556;DHT22;36508;52.512;13.450;2023-05-10T01:31:23;13.40;93.30
50556;DHT22;36508;52.512;13.450;2023-05-10T01:34:17;13.40;93.60
50556;DHT22;36508;52.512;13.450;2023-05-10T01:42:11;13.20;94.80
50556;DHT22;36508;52.512;13.450;2023-05-10T01:45:05;13.10;95.00
50556;DHT22;36508;52.512;13.450;2023-05-10T01:47:40;13.20;95.20
50556;DHT22;36508;52.512;13.450;2023-05-10T01:50:10;13.10;95.60
50556;DHT22;36508;52.512;13.450;2023-05-10T01:52:47;13.00;95.80
50556;DHT22;36508;52.512;13.450;2023-05-10T01:55:16;13.10;96.00
50556;DHT22;36508;52.512;13.450;2023-05-10T01:57:44;13.10;96.20
50556;DHT22;36508;52.512;13.450;2023-05-10T02:00:12;13.10;96.40
50556;DHT22;36508;52.512;13.450;2023-05-10T02:02:45;13.20;96.50
50556;DHT22;36508;52.512;13.450;2023-05-10T02:05:15;13.10;96.60
50556;DHT22;36508;52.512;13.450;2023-05-10T02:07:42;13.00;96.90
50556;DHT22;36508;52.512;13.450;2023-05-10T02:10:09;12.90;97.40
50556;DHT22;36508;52.512;13.450;2023-05-10T02:12:41;12.90;97.60
50556;DHT22;36508;52.512;13.450;2023-05-10T02:15:08;12.90;97.70
50556;DHT22;36508;52.512;13.450;2023-05-10T02:17:37;12.90;98.10
50556;DHT22;36508;52.512;13.450;2023-05-10T02:20:06;12.80;98.40
50556;DHT22;36508;52.512;13.450;2023-05-10T02:22:33;12.80;98.60
50556;DHT22;36508;52.512;13.450;2023-05-10T02:25:01;12.80;98.80
50556;DHT22;36508;52.512;13.450;2023-05-10T02:27:29;12.80;99.20
50556;DHT22;36508;52.512;13.450;2023-05-10T02:29:56;12.70;99.30
50556;DHT22;36508;52.512;13.450;2023-05-10T02:32:25;12.80;99.50
50556;DHT22;36508;52.512;13.450;2023-05-10T02:34:55;12.80;99.40
50556;DHT22;36508;52.512;13.450;2023-05-10T02:37:22;12.70;99.90
50556;DHT22;36508;52.512;13.450;2023-05-10T02:39:49;12.70;99.90
50556;DHT22;36508;52.512;13.450;2023-05-10T02:42:19;12.90;99.90
50556;DHT22;36508;52.512;13.450;2023-05-10T02:44:55;12.80;99.90
50556;DHT22;36508;52.512;13.450;2023-05-10T02:47:25;12.80;99.90
50556;DHT22;36508;52.512;13.450;2023-05-10T02:49:54;12.70;99.90
50556;DHT22;36508;52.512;13.450;2023-05-10T02:52:24;12.70;99.90
50556;DHT22;36508;52.512;13.450;2023-05-10T02:54:55;12.50;99.90
50556;DHT22;36508;52.512;13.450;2023-05-10T02:57:29;12.50;99.90
50556;DHT22;36508;52.512;13.450;2023-05-10T02:59:57;12.60;99.90
50556;DHT22;36508;52.512;13.450;2023-05-10T03:02:23;12.60;99.90
50556;DHT22;36508;52.512;13.450;2023-05-10T03:04:48;12.60;99.90
50556;DHT22;36508;52.512;13.450;2023-05-10T03:07:14;12.60;99.90
50556;DHT22;36508;52.512;13.450;2023-05-10T03:09:40;12.40;99.90
50556;DHT22;36508;52.512;13.450;2023-05-10T03:12:21;12.40;99.90
50556;DHT22;36508;52.512;13.450;2023-05-10T03:15:31;12.30;99.90
50556;DHT22;36508;52.512;13.450;2023-05-10T03:18:37;12.10;99.90
50556;DHT22;36508;52.512;13.450;2023-05-10T03:20:59;12.10;99.90
50556;DHT22;36508;52.512;13.450;2023-05-10T03:23:43;12.20;99.90
50556;DHT22;36508;52.512;13.450;2023-05-10T03:26:16;12.30;99.90
50556;DHT22;36508;52.512;13.450;2023-05-10T03:28:44;12.20;99.90
50556;DHT22;36508;52.512;13.450;2023-05-10T03:31:11;12.30;99.90
50556;DHT22;36508;52.512;13.450;2023-05-10T03:33:48;12.40;99.90
50556;DHT22;36508;52.512;13.450;2023-05-10T03:36:14;12.40;99.90
50556;DHT22;36508;52.512;13.450;2023-05-10T03:38:40;12.40;99.90
50556;DHT22;36508;52.512;13.450;2023-05-10T03:41:05;12.30;99.90
50556;DHT22;36508;52.512;13.450;2023-05-10T03:43:37;12.40;99.90
50556;DHT22;36508;52.512;13.450;2023-05-10T03:46:03;12.30;99.90
50556;DHT22;36508;52.512;13.450;2023-05-10T03:48:30;12.20;99.90
50556;DHT22;36508;52.512;13.450;2023-05-10T03:50:56;12.20;99.90
50556;DHT22;36508;52.512;13.450;2023-05-10T03:53:21;12.20;99.90
50556;DHT22;36508;52.512;13.450;2023-05-10T03:55:48;12.20;99.90
50556;DHT22;36508;52.512;13.450;2023-05-10T03:58:14;12.10;99.90
50556;DHT22;36508;52.512;13.450;2023-05-10T04:00:40;12.20;99.90
50556;DHT22;36508;52.512;13.450;2023-05-10T04:03:09;12.30;99.90
50556;DHT22;36508;52.512;13.450;2023-05-10T04:05:35;12.20;99.90
50556;DHT22;36508;52.512;13.450;2023-05-10T04:08:02;12.30;99.90
50556;DHT22;36508;52.512;13.450;2023-05-10T04:10:27;12.30;99.90
50556;DHT22;36508;52.512;13.450;2023-05-10T04:12:53;12.30;99.90
50556;DHT22;36508;52.512;13.450;2023-05-10T04:15:19;12.30;99.90
50556;DHT22;36508;52.512;13.450;2023-05-10T04:17:45;12.30;99.90
50556;DHT22;36508;52.512;13.450;2023-05-10T04:20:11;12.30;99.90
50556;DHT22;36508;52.512;13.450;2023-05-10T04:22:42;12.30;99.90
50556;DHT22;36508;52.512;13.450;2023-05-10T04:25:08;12.30;99.90
50556;DHT22;36508;52.512;13.450;2023-05-10T04:27:34;12.30;99.90
50556;DHT22;36508;52.512;13.450;2023-05-10T04:29:59;12.30;99.90
50556;DHT22;36508;52.512;13.450;2023-05-10T04:32:25;12.20;99.90
50556;DHT22;36508;52.512;13.450;2023-05-10T04:34:51;12.30;99.90
50556;DHT22;36508;52.512;13.450;2023-05-10T04:37:17;12.30;99.90
50556;DHT22;36508;52.512;13.450;2023-05-10T04:39:43;12.30;99.90
50556;DHT22;36508;52.512;13.450;2023-05-10T04:42:09;12.50;99.90
50556;DHT22;36508;52.512;13.450;2023-05-10T04:44:35;12.50;99.90
50556;DHT22;36508;52.512;13.450;2023-05-10T04:47:01;12.60;99.90
50556;DHT22;36508;52.512;13.450;2023-05-10T04:49:29;12.60;99.90
50556;DHT22;36508;52.512;13.450;2023-05-10T04:51:55;12.60;99.90
50556;DHT22;36508;52.512;13.450;2023-05-10T04:54:20;12.50;99.90
50556;DHT22;36508;52.512;13.450;2023-05-10T04:56:49;12.60;99.90
50556;DHT22;36508;52.512;13.450;2023-05-10T04:59:15;12.60;99.90
50556;DHT22;36508;52.512;13.450;2023-05-10T05:01:41;12.60;99.90
50556;DHT22;36508;52.512;13.450;2023-05-10T05:04:06;12.70;99.90
50556;DHT22;36508;52.512;13.450;2023-05-10T05:06:32;12.70;99.90
50556;DHT22;36508;52.512;13.450;2023-05-10T05:08:58;12.60;99.90
50556;DHT22;36508;52.512;13.450;2023-05-10T05:11:26;12.80;99.90
50556;DHT22;36508;52.512;13.450;2023-05-10T05:13:52;12.80;99.90
50556;DHT22;36508;52.512;13.450;2023-05-10T05:16:18;12.80;99.90
50556;DHT22;36508;52.512;13.450;2023-05-10T05:18:43;12.90;99.90
50556;DHT22;36508;52.512;13.450;2023-05-10T05:21:16;12.90;99.90
50556;DHT22;36508;52.512;13.450;2023-05-10T05:23:42;13.00;99.90
50556;DHT22;36508;52.512;13.450;2023-05-10T05:26:08;13.00;99.90
50556;DHT22;36508;52.512;13.450;2023-05-10T05:28:33;13.20;99.90
50556;DHT22;36508;52.512;13.450;2023-05-10T05:31:05;13.20;99.90
50556;DHT22;36508;52.512;13.450;2023-05-10T05:33:31;13.30;99.90
50556;DHT22;36508;52.512;13.450;2023-05-10T05:35:56;13.20;99.90
50556;DHT22;36508;52.512;13.450;2023-05-10T05:38:22;13.30;99.90
50556;DHT22;36508;52.512;13.450;2023-05-10T05:40:48;13.40;99.90
50556;DHT22;36508;52.512;13.450;2023-05-10T05:43:14;13.50;99.90
50556;DHT22;36508;52.512;13.450;2023-05-10T05:45:40;13.50;99.90
50556;DHT22;36508;52.512;13.450;2023-05-10T05:48:06;13.60;99.90
50556;DHT22;36508;52.512;13.450;2023-05-10T05:50:34;13.60;99.90
50556;DHT22;36508;52.512;13.450;2023-05-10T05:53:00;13.60;99.90
50556;DHT22;36508;52.512;13.450;2023-05-10T05:55:26;13.60;99.90
50556;DHT22;36508;52.512;13.450;2023-05-10T05:57:52;13.60;99.90
50556;DHT22;36508;52.512;13.450;2023-05-10T06:00:18;13.70;99.90
50556;DHT22;36508;52.512;13.450;2023-05-10T06:02:43;13.80;99.90
50556;DHT22;36508;52.512;13.450;2023-05-10T06:05:09;13.90;99.90
50556;DHT22;36508;52.512;13.450;2023-05-10T06:07:35;13.90;99.90
50556;DHT22;36508;52.512;13.450;2023-05-10T06:10:01;14.00;99.90
50556;DHT22;36508;52.512;13.450;2023-05-10T06:12:26;14.00;99.90
50556;DHT22;36508;52.512;13.450;2023-05-10T06:14:52;14.00;99.90
50556;DHT22;36508;52.512;13.450;2023-05-10T06:17:17;14.10;99.90
50556;DHT22;36508;52.512;13.450;2023-05-10T06:19:43;14.10;99.90
50556;DHT22;36508;52.512;13.450;2023-05-10T06:22:09;14.20;99.90
50556;DHT22;36508;52.512;13.450;2023-05-10T06:24:34;14.30;99.90
50556;DHT22;36508;52.512;13.450;2023-05-10T06:27:00;14.20;99.90
50556;DHT22;36508;52.512;13.450;2023-05-10T06:29:26;14.30;99.90
50556;DHT22;36508;52.512;13.450;2023-05-10T06:31:51;14.30;99.90
50556;DHT22;36508;52.512;13.450;2023-05-10T06:34:17;14.40;99.90
50556;DHT22;36508;52.512;13.450;2023-05-10T06:36:42;14.40;99.90
50556;DHT22;36508;52.512;13.450;2023-05-10T06:39:08;14.50;99.90
50556;DHT22;36508;52.512;13.450;2023-05-10T06:41:37;14.50;99.90
50556;DHT22;36508;52.512;13.450;2023-05-10T06:44:03;14.60;99.90
50556;DHT22;36508;52.512;13.450;2023-05-10T06:46:29;14.70;99.90
50556;DHT22;36508;52.512;13.450;2023-05-10T06:48:54;14.70;99.90
50556;DHT22;36508;52.512;13.450;2023-05-10T06:51:20;14.80;99.90
50556;DHT22;36508;52.512;13.450;2023-05-10T06:53:46;14.70;99.90
50556;DHT22;36508;52.512;13.450;2023-05-10T06:56:12;14.80;99.90
50556;DHT22;36508;52.512;13.450;2023-05-10T06:58:38;14.90;99.90
50556;DHT22;36508;52.512;13.450;2023-05-10T07:01:05;14.90;99.90
50556;DHT22;36508;52.512;13.450;2023-05-10T07:03:33;15.00;99.90
50556;DHT22;36508;52.512;13.450;2023-05-10T07:06:03;15.00;99.90
50556;DHT22;36508;52.512;13.450;2023-05-10T07:08:32;15.10;99.90
50556;DHT22;36508;52.512;13.450;2023-05-10T07:11:05;15.20;99.90
50556;DHT22;36508;52.512;13.450;2023-05-10T07:13:33;15.20;99.90
50556;DHT22;36508;52.512;13.450;2023-05-10T07:15:59;15.30;99.90
50556;DHT22;36508;52.512;13.450;2023-05-10T07:18:26;15.30;99.90
50556;DHT22;36508;52.512;13.450;2023-05-10T07:20:52;15.40;99.90
50556;DHT22;36508;52.512;13.450;2023-05-10T07:23:17;15.50;99.90
50556;DHT22;36508;52.512;13.450;2023-05-10T07:25:50;15.50;99.90
50556;DHT22;36508;52.512;13.450;2023-05-10T07:28:20;15.50;99.90
50556;DHT22;36508;52.512;13.450;2023-05-10T07:30:46;15.50;99.90
50556;DHT22;36508;52.512;13.450;2023-05-10T07:33:13;15.60;99.90
50556;DHT22;36508;52.512;13.450;2023-05-10T07:35:39;15.60;99.90
50556;DHT22;36508;52.512;13.450;2023-05-10T07:38:05;15.70;99.90
50556;DHT22;36508;52.512;13.450;2023-05-10T07:40:31;15.80;99.90
50556;DHT22;36508;52.512;13.450;2023-05-10T07:42:57;15.90;99.90
50556;DHT22;36508;52.512;13.450;2023-05-10T07:45:23;15.90;99.90
50556;DHT22;36508;52.512;13.450;2023-05-10T07:47:49;16.00;99.90
50556;DHT22;36508;52.512;13.450;2023-05-10T07:50:15;16.10;99.90
50556;DHT22;36508;52.512;13.450;2023-05-10T07:52:41;16.10;99.90
50556;DHT22;36508;52.512;13.450;2023-05-10T07:55:07;16.10;99.90
50556;DHT22;36508;52.512;13.450;2023-05-10T07:57:36;16.20;99.90
50556;DHT22;36508;52.512;13.450;2023-05-10T08:00:02;16.40;99.90
50556;DHT22;36508;52.512;13.450;2023-05-10T08:02:28;16.50;99.90
50556;DHT22;36508;52.512;13.450;2023-05-10T08:04:54;16.40;99.90
50556;DHT22;36508;52.512;13.450;2023-05-10T08:07:19;16.50;99.90
50556;DHT22;36508;52.512;13.450;2023-05-10T08:09:45;16.50;99.90
50556;DHT22;36508;52.512;13.450;2023-05-10T08:12:11;16.60;99.90
50556;DHT22;36508;52.512;13.450;2023-05-10T08:14:36;16.70;99.90
50556;DHT22;36508;52.512;13.450;2023-05-10T08:17:03;16.80;99.90
50556;DHT22;36508;52.512;13.450;2023-05-10T08:19:29;16.80;99.30
50556;DHT22;36508;52.512;13.450;2023-05-10T08:21:54;16.90;99.40
50556;DHT22;36508;52.512;13.450;2023-05-10T08:24:23;16.80;99.10
50556;DHT22;36508;52.512;13.450;2023-05-10T08:26:50;16.90;99.30
50556;DHT22;36508;52.512;13.450;2023-05-10T08:29:15;17.00;99.70
50556;DHT22;36508;52.512;13.450;2023-05-10T08:31:41;17.10;99.20
50556;DHT22;36508;52.512;13.450;2023-05-10T08:34:07;17.30;99.00
50556;DHT22;36508;52.512;13.450;2023-05-10T08:36:36;17.40;98.90
50556;DHT22;36508;52.512;13.450;2023-05-10T08:39:01;17.50;98.60
50556;DHT22;36508;52.512;13.450;2023-05-10T08:41:28;17.60;98.20
50556;DHT22;36508;52.512;13.450;2023-05-10T08:43:55;17.60;98.00
50556;DHT22;36508;52.512;13.450;2023-05-10T08:46:22;17.60;97.80
50556;DHT22;36508;52.512;13.450;2023-05-10T08:48:49;17.60;97.60
50556;DHT22;36508;52.512;13.450;2023-05-10T08:51:18;17.60;97.80
50556;DHT22;36508;52.512;13.450;2023-05-10T08:53:47;17.70;97.70
50556;DHT22;36508;52.512;13.450;2023-05-10T08:56:13;17.70;97.70
50556;DHT22;36508;52.512;13.450;2023-05-10T08:58:41;17.80;97.60
50556;DHT22;36508;52.512;13.450;2023-05-10T09:04:24;17.90;96.90
50556;DHT22;36508;52.512;13.450;2023-05-10T09:06:50;18.10;96.60
50556;DHT22;36508;52.512;13.450;2023-05-10T09:09:17;18.00;96.60
50556;DHT22;36508;52.512;13.450;2023-05-10T09:11:43;18.20;96.90
50556;DHT22;36508;52.512;13.450;2023-05-10T09:14:13;18.30;96.50
50556;DHT22;36508;52.512;13.450;2023-05-10T09:16:40;18.40;96.10
50556;DHT22;36508;52.512;13.450;2023-05-10T09:19:07;18.50;96.20
50556;DHT22;36508;52.512;13.450;2023-05-10T09:21:35;18.60;96.30
50556;DHT22;36508;52.512;13.450;2023-05-10T09:24:04;18.80;96.30
50556;DHT22;36508;52.512;13.450;2023-05-10T09:26:30;18.80;95.40
50556;DHT22;36508;52.512;13.450;2023-05-10T09:28:59;18.80;95.50
50556;DHT22;36508;52.512;13.450;2023-05-10T09:31:47;19.00;95.10
50556;DHT22;36508;52.512;13.450;2023-05-10T09:34:29;19.20;94.90
50556;DHT22;36508;52.512;13.450;2023-05-10T09:36:59;19.40;94.70
50556;DHT22;36508;52.512;13.450;2023-05-10T09:39:38;19.40;94.80
50556;DHT22;36508;52.512;13.450;2023-05-10T09:42:06;19.60;94.20
50556;DHT22;36508;52.512;13.450;2023-05-10T09:44:33;19.60;94.10
50556;DHT22;36508;52.512;13.450;2023-05-10T09:47:00;19.80;93.90
50556;DHT22;36508;52.512;13.450;2023-05-10T09:49:26;19.80;93.30
50556;DHT22;36508;52.512;13.450;2023-05-10T09:52:05;19.90;93.50
50556;DHT22;36508;52.512;13.450;2023-05-10T09:54:32;20.10;93.70
50556;DHT22;36508;52.512;13.450;2023-05-10T09:56:58;20.20;92.90
50556;DHT22;36508;52.512;13.450;2023-05-10T09:59:27;20.20;93.20
50556;DHT22;36508;52.512;13.450;2023-05-10T10:01:56;20.40;93.00
50556;DHT22;36508;52.512;13.450;2023-05-10T10:04:22;20.60;92.50
50556;DHT22;36508;52.512;13.450;2023-05-10T10:07:07;20.80;92.20
50556;DHT22;36508;52.512;13.450;2023-05-10T10:09:34;21.10;91.90
50556;DHT22;36508;52.512;13.450;2023-05-10T10:12:01;20.90;91.20
50556;DHT22;36508;52.512;13.450;2023-05-10T10:14:27;20.90;91.20
50556;DHT22;36508;52.512;13.450;2023-05-10T10:16:54;21.00;91.20
50556;DHT22;36508;52.512;13.450;2023-05-10T10:19:20;21.00;90.80
50556;DHT22;36508;52.512;13.450;2023-05-10T10:21:46;21.00;90.30
50556;DHT22;36508;52.512;13.450;2023-05-10T10:24:12;21.00;90.90
50556;DHT22;36508;52.512;13.450;2023-05-10T10:26:41;21.20;90.90
50556;DHT22;36508;52.512;13.450;2023-05-10T10:29:41;21.40;90.60
50556;DHT22;36508;52.512;13.450;2023-05-10T10:34:55;22.70;90.50
50556;DHT22;36508;52.512;13.450;2023-05-10T10:37:23;25.30;85.70
50556;DHT22;36508;52.512;13.450;2023-05-10T10:39:55;28.00;76.10
50556;DHT22;36508;52.512;13.450;2023-05-10T10:42:44;30.30;68.70
50556;DHT22;36508;52.512;13.450;2023-05-10T10:45:11;32.20;62.70
50556;DHT22;36508;52.512;13.450;2023-05-10T10:50:05;33.60;58.00
50556;DHT22;36508;52.512;13.450;2023-05-10T10:52:45;33.60;53.20
50556;DHT22;36508;52.512;13.450;2023-05-10T10:55:19;34.70;51.60
50556;DHT22;36508;52.512;13.450;2023-05-10T10:57:53;34.70;49.90
50556;DHT22;36508;52.512;13.450;2023-05-10T11:00:30;33.60;49.90
50556;DHT22;36508;52.512;13.450;2023-05-10T11:03:11;32.40;51.70
50556;DHT22;36508;52.512;13.450;2023-05-10T11:05:44;31.50;52.60
50556;DHT22;36508;52.512;13.450;2023-05-10T11:08:29;32.00;52.30
50556;DHT22;36508;52.512;13.450;2023-05-10T11:13:44;34.90;48.30
50556;DHT22;36508;52.512;13.450;2023-05-10T11:18:52;35.70;46.80
50556;DHT22;36508;52.512;13.450;2023-05-10T11:21:18;34.90;46.30
50556;DHT22;36508;52.512;13.450;2023-05-10T11:23:48;33.10;47.60
50556;DHT22;36508;52.512;13.450;2023-05-10T11:26:15;32.60;49.00
50556;DHT22;36508;52.512;13.450;2023-05-10T11:28:46;33.60;48.00
50556;DHT22;36508;52.512;13.450;2023-05-10T11:31:16;35.90;46.90
50556;DHT22;36508;52.512;13.450;2023-05-10T11:34:02;36.40;44.80
50556;DHT22;36508;52.512;13.450;2023-05-10T11:36:33;36.70;44.20
50556;DHT22;36508;52.512;13.450;2023-05-10T11:38:58;36.60;43.60
50556;DHT22;36508;52.512;13.450;2023-05-10T11:53:52;37.30;43.60
50556;DHT22;36508;52.512;13.450;2023-05-10T11:56:18;34.80;43.40
50556;DHT22;36508;52.512;13.450;2023-05-10T11:59:00;32.90;43.90
50556;DHT22;36508;52.512;13.450;2023-05-10T12:01:28;30.90;46.00
50556;DHT22;36508;52.512;13.450;2023-05-10T12:04:14;30.40;46.80
50556;DHT22;36508;52.512;13.450;2023-05-10T12:06:40;29.00;49.10
50556;DHT22;36508;52.512;13.450;2023-05-10T12:09:07;28.40;49.20
50556;DHT22;36508;52.512;13.450;2023-05-10T12:11:37;27.70;50.90
50556;DHT22;36508;52.512;13.450;2023-05-10T12:14:08;27.70;51.00
50556;DHT22;36508;52.512;13.450;2023-05-10T12:16:36;27.50;50.30
50556;DHT22;36508;52.512;13.450;2023-05-10T12:19:08;26.70;51.20
50556;DHT22;36508;52.512;13.450;2023-05-10T12:21:37;26.40;51.80
50556;DHT22;36508;52.512;13.450;2023-05-10T12:24:07;26.40;52.60
50556;DHT22;36508;52.512;13.450;2023-05-10T12:26:35;26.30;52.00
50556;DHT22;36508;52.512;13.450;2023-05-10T12:29:18;26.20;52.30
50556;DHT22;36508;52.512;13.450;2023-05-10T12:31:58;26.50;51.70
50556;DHT22;36508;52.512;13.450;2023-05-10T12:34:32;26.60;51.10
50556;DHT22;36508;52.512;13.450;2023-05-10T12:36:58;25.90;51.80
50556;DHT22;36508;52.512;13.450;2023-05-10T12:39:40;25.80;52.80
50556;DHT22;36508;52.512;13.450;2023-05-10T12:42:07;25.50;53.30
50556;DHT22;36508;52.512;13.450;2023-05-10T12:44:32;25.90;53.20
50556;DHT22;36508;52.512;13.450;2023-05-10T12:47:01;26.20;53.30
50556;DHT22;36508;52.512;13.450;2023-05-10T12:49:27;26.60;52.90
50556;DHT22;36508;52.512;13.450;2023-05-10T12:51:56;26.80;52.20
50556;DHT22;36508;52.512;13.450;2023-05-10T12:54:24;26.60;51.90
50556;DHT22;36508;52.512;13.450;2023-05-10T12:57:23;26.80;51.50
50556;DHT22;36508;52.512;13.450;2023-05-10T13:00:24;27.00;50.80
50556;DHT22;36508;52.512;13.450;2023-05-10T13:02:50;26.70;51.40
50556;DHT22;36508;52.512;13.450;2023-05-10T13:05:16;26.40;52.60
50556;DHT22;36508;52.512;13.450;2023-05-10T13:07:41;26.80;52.70
50556;DHT22;36508;52.512;13.450;2023-05-10T13:10:09;27.10;52.70
50556;DHT22;36508;52.512;13.450;2023-05-10T13:12:35;27.00;52.30
50556;DHT22;36508;52.512;13.450;2023-05-10T13:15:04;26.60;52.80
50556;DHT22;36508;52.512;13.450;2023-05-10T13:17:36;26.60;52.20
50556;DHT22;36508;52.512;13.450;2023-05-10T13:20:04;26.50;50.60
50556;DHT22;36508;52.512;13.450;2023-05-10T13:22:30;26.20;51.20
50556;DHT22;36508;52.512;13.450;2023-05-10T13:24:56;26.20;51.90
50556;DHT22;36508;52.512;13.450;2023-05-10T13:27:21;26.50;51.60
50556;DHT22;36508;52.512;13.450;2023-05-10T13:29:47;26.50;51.40
50556;DHT22;36508;52.512;13.450;2023-05-10T13:32:12;26.90;51.90
50556;DHT22;36508;52.512;13.450;2023-05-10T13:34:38;27.20;51.20
50556;DHT22;36508;52.512;13.450;2023-05-10T13:37:04;27.70;50.80
50556;DHT22;36508;52.512;13.450;2023-05-10T13:39:29;27.70;50.90
50556;DHT22;36508;52.512;13.450;2023-05-10T13:41:58;27.30;51.00
50556;DHT22;36508;52.512;13.450;2023-05-10T13:44:24;27.20;51.30
50556;DHT22;36508;52.512;13.450;2023-05-10T13:46:56;27.20;51.20
50556;DHT22;36508;52.512;13.450;2023-05-10T13:49:22;27.40;50.80
50556;DHT22;36508;52.512;13.450;2023-05-10T13:51:47;27.30;50.50
50556;DHT22;36508;52.512;13.450;2023-05-10T13:54:22;27.50;50.60
50556;DHT22;36508;52.512;13.450;2023-05-10T13:56:51;27.50;50.40
50556;DHT22;36508;52.512;13.450;2023-05-10T13:59:17;27.60;50.60
50556;DHT22;36508;52.512;13.450;2023-05-10T14:01:46;27.70;50.50
50556;DHT22;36508;52.512;13.450;2023-05-10T14:04:12;27.70;50.40
50556;DHT22;36508;52.512;13.450;2023-05-10T14:06:41;27.40;50.20
50556;DHT22;36508;52.512;13.450;2023-05-10T14:09:07;26.40;50.00
50556;DHT22;36508;52.512;13.450;2023-05-10T14:11:33;25.80;50.50
50556;DHT22;36508;52.512;13.450;2023-05-10T14:13:58;25.60;51.80
50556;DHT22;36508;52.512;13.450;2023-05-10T14:16:27;25.00;51.70
50556;DHT22;36508;52.512;13.450;2023-05-10T14:18:52;24.70;52.70
50556;DHT22;36508;52.512;13.450;2023-05-10T14:21:18;25.00;53.10
50556;DHT22;36508;52.512;13.450;2023-05-10T14:23:43;25.30;52.80
50556;DHT22;36508;52.512;13.450;2023-05-10T14:26:09;25.50;52.50
50556;DHT22;36508;52.512;13.450;2023-05-10T14:28:35;25.70;52.50
50556;DHT22;36508;52.512;13.450;2023-05-10T14:31:00;25.30;51.70
50556;DHT22;36508;52.512;13.450;2023-05-10T14:33:26;25.00;51.60
50556;DHT22;36508;52.512;13.450;2023-05-10T14:35:54;24.80;51.80
50556;DHT22;36508;52.512;13.450;2023-05-10T14:38:21;25.20;51.40
50556;DHT22;36508;52.512;13.450;2023-05-10T14:41:25;25.10;51.10
50556;DHT22;36508;52.512;13.450;2023-05-10T14:43:50;25.20;51.00
50556;DHT22;36508;52.512;13.450;2023-05-10T14:46:16;25.50;51.00
50556;DHT22;36508;52.512;13.450;2023-05-10T14:48:42;25.70;50.90
50556;DHT22;36508;52.512;13.450;2023-05-10T14:51:08;25.90;50.80
50556;DHT22;36508;52.512;13.450;2023-05-10T14:53:33;25.90;50.90
50556;DHT22;36508;52.512;13.450;2023-05-10T14:55:59;26.10;51.50
50556;DHT22;36508;52.512;13.450;2023-05-10T14:58:26;25.70;50.70
50556;DHT22;36508;52.512;13.450;2023-05-10T15:00:53;25.80;50.50
50556;DHT22;36508;52.512;13.450;2023-05-10T15:03:19;25.60;50.80
50556;DHT22;36508;52.512;13.450;2023-05-10T15:05:45;25.40;51.60
50556;DHT22;36508;52.512;13.450;2023-05-10T15:08:13;25.70;52.00
50556;DHT22;36508;52.512;13.450;2023-05-10T15:10:39;25.90;52.20
50556;DHT22;36508;52.512;13.450;2023-05-10T15:13:05;26.00;51.60
50556;DHT22;36508;52.512;13.450;2023-05-10T15:15:30;25.80;51.50
50556;DHT22;36508;52.512;13.450;2023-05-10T15:17:56;25.80;52.40
50556;DHT22;36508;52.512;13.450;2023-05-10T15:20:22;25.60;52.00
50556;DHT22;36508;52.512;13.450;2023-05-10T15:22:47;25.40;52.50
50556;DHT22;36508;52.512;13.450;2023-05-10T15:25:13;25.00;52.20
50556;DHT22;36508;52.512;13.450;2023-05-10T15:27:39;24.70;52.50
50556;DHT22;36508;52.512;13.450;2023-05-10T15:30:05;24.60;52.90
50556;DHT22;36508;52.512;13.450;2023-05-10T15:32:31;24.80;52.20
50556;DHT22;36508;52.512;13.450;2023-05-10T15:34:57;24.90;52.30
50556;DHT22;36508;52.512;13.450;2023-05-10T15:37:23;24.80;52.70
50556;DHT22;36508;52.512;13.450;2023-05-10T15:39:49;24.80;53.20
50556;DHT22;36508;52.512;13.450;2023-05-10T15:42:15;24.50;54.30
50556;DHT22;36508;52.512;13.450;2023-05-10T15:44:41;24.50;54.20
50556;DHT22;36508;52.512;13.450;2023-05-10T15:47:06;24.60;54.10
50556;DHT22;36508;52.512;13.450;2023-05-10T15:49:32;24.40;54.40
50556;DHT22;36508;52.512;13.450;2023-05-10T15:51:58;24.20;54.80
50556;DHT22;36508;52.512;13.450;2023-05-10T15:54:24;24.10;55.00
50556;DHT22;36508;52.512;13.450;2023-05-10T15:56:50;24.20;55.20
50556;DHT22;36508;52.512;13.450;2023-05-10T15:59:15;23.90;54.60
50556;DHT22;36508;52.512;13.450;2023-05-10T16:01:41;24.00;55.20
50556;DHT22;36508;52.512;13.450;2023-05-10T16:04:07;24.40;55.40